sensor_id;sensor_type;location;lat;lon;timestamp;temperature;humidity
22716;DHT22;11525;51.152;4.456;2023-05-20T00:02:04;13.10;99.90
22716;DHT22;11525;51.152;4.456;2023-05-20T00:04:30;13.10;99.90
22716;DHT22;11525;51.152;4.456;2023-05-20T00:06:56;13.10;99.90
22716;DHT22;11525;51.152;4.456;2023-05-20T00:09:21;13.10;99.90
22716;DHT22;11525;51.152;4.456;2023-05-20T00:11:47;13.10;99.90
22716;DHT22;11525;51.152;4.456;2023-05-20T00:14:13;13.00;99.90
22716;DHT22;11525;51.152;4.456;2023-05-20T00:16:38;13.00;99.90
22716;DHT22;11525;51.152;4.456;2023-05-20T00:19:04;12.90;99.90
22716;DHT22;11525;51.152;4.456;2023-05-20T00:21:30;12.80;99.90
22716;DHT22;11525;51.152;4.456;2023-05-20T00:23:56;12.70;99.90
22716;DHT22;11525;51.152;4.456;2023-05-20T00:26:22;12.60;99.90
22716;DHT22;11525;51.152;4.456;2023-05-20T00:28:48;12.60;99.90
22716;DHT22;11525;51.152;4.456;2023-05-20T00:31:13;12.60;99.90
22716;DHT22;11525;51.152;4.456;2023-05-20T00:33:39;12.50;99.90
22716;DHT22;11525;51.152;4.456;2023-05-20T00:36:05;12.50;99.90
22716;DHT22;11525;51.152;4.456;2023-05-20T00:38:33;12.50;99.90
22716;DHT22;11525;51.152;4.456;2023-05-20T00:40:59;12.50;99.90
22716;DHT22;11525;51.152;4.456;2023-05-20T00:43:24;12.50;99.90
22716;DHT22;11525;51.152;4.456;2023-05-20T00:45:54;12.50;99.90
22716;DHT22;11525;51.152;4.456;2023-05-20T00:48:20;12.40;99.90
22716;DHT22;11525;51.152;4.456;2023-05-20T00:50:47;12.40;99.90
22716;DHT22;11525;51.152;4.456;2023-05-20T00:53:16;12.40;99.90
22716;DHT22;11525;51.152;4.456;2023-05-20T00:55:43;12.40;99.90
22716;DHT22;11525;51.152;4.456;2023-05-20T00:58:08;12.40;99.90
22716;DHT22;11525;51.152;4.456;2023-05-20T01:00:34;12.40;99.90
22716;DHT22;11525;51.152;4.456;2023-05-20T01:03:00;12.30;99.90
22716;DHT22;11525;51.152;4.456;2023-05-20T01:05:26;12.30;99.90
22716;DHT22;11525;51.152;4.456;2023-05-20T01:07:52;12.30;99.90
22716;DHT22;11525;51.152;4.456;2023-05-20T01:10:17;12.30;99.90
22716;DHT22;11525;51.152;4.456;2023-05-20T01:12:49;12.40;99.90
22716;DHT22;11525;51.152;4.456;2023-05-20T01:15:17;12.30;99.90
22716;DHT22;11525;51.152;4.456;2023-05-20T01:17:45;12.40;99.90
22716;DHT22;11525;51.152;4.456;2023-05-20T01:20:13;12.30;99.90
22716;DHT22;11525;51.152;4.456;2023-05-20T01:22:49;12.30;99.90
22716;DHT22;11525;51.152;4.456;2023-05-20T01:25:17;12.20;99.90
22716;DHT22;11525;51.152;4.456;2023-05-20T01:27:43;12.20;99.90
22716;DHT22;11525;51.152;4.456;2023-05-20T01:30:09;12.20;99.90
22716;DHT22;11525;51.152;4.456;2023-05-20T01:32:41;12.20;99.90
22716;DHT22;11525;51.152;4.456;2023-05-20T01:35:08;12.20;99.90
22716;DHT22;11525;51.152;4.456;2023-05-20T01:37:39;12.20;99.90
22716;DHT22;11525;51.152;4.456;2023-05-20T01:40:07;12.20;99.90
22716;DHT22;11525;51.152;4.456;2023-05-20T01:42:33;12.20;99.90
22716;DHT22;11525;51.152;4.456;2023-05-20T01:44:59;12.10;99.90
22716;DHT22;11525;51.152;4.456;2023-05-20T01:47:25;12.10;99.90
22716;DHT22;11525;51.152;4.456;2023-05-20T01:49:51;12.00;99.90
22716;DHT22;11525;51.152;4.456;2023-05-20T01:52:19;12.00;99.90
22716;DHT22;11525;51.152;4.456;2023-05-20T01:54:45;12.10;99.90
22716;DHT22;11525;51.152;4.456;2023-05-20T01:57:20;12.10;99.90
22716;DHT22;11525;51.152;4.456;2023-05-20T01:59:45;12.00;99.90
22716;DHT22;11525;51.152;4.456;2023-05-20T02:02:12;12.00;99.90
22716;DHT22;11525;51.152;4.456;2023-05-20T02:04:38;12.10;99.90
22716;DHT22;11525;51.152;4.456;2023-05-20T02:07:04;12.10;99.90
22716;DHT22;11525;51.152;4.456;2023-05-20T02:09:29;12.00;99.90
22716;DHT22;11525;51.152;4.456;2023-05-20T02:11:55;11.90;99.90
22716;DHT22;11525;51.152;4.456;2023-05-20T02:14:21;11.90;99.90
22716;DHT22;11525;51.152;4.456;2023-05-20T02:16:46;11.90;99.90
22716;DHT22;11525;51.152;4.456;2023-05-20T02:19:12;11.80;99.90
22716;DHT22;11525;51.152;4.456;2023-05-20T02:21:40;11.80;99.90
22716;DHT22;11525;51.152;4.456;2023-05-20T02:24:05;11.70;99.90
22716;DHT22;11525;51.152;4.456;2023-05-20T02:26:32;11.60;99.90
22716;DHT22;11525;51.152;4.456;2023-05-20T02:28:58;11.60;99.90
22716;DHT22;11525;51.152;4.456;2023-05-20T02:31:24;11.70;99.90
22716;DHT22;11525;51.152;4.456;2023-05-20T02:33:50;11.60;99.90
22716;DHT22;11525;51.152;4.456;2023-05-20T02:36:16;11.60;99.90
22716;DHT22;11525;51.152;4.456;2023-05-20T02:38:42;11.60;99.90
22716;DHT22;11525;51.152;4.456;2023-05-20T02:41:08;11.70;99.90
22716;DHT22;11525;51.152;4.456;2023-05-20T02:43:34;11.70;99.90
22716;DHT22;11525;51.152;4.456;2023-05-20T02:46:01;11.70;99.90
22716;DHT22;11525;51.152;4.456;2023-05-20T02:48:27;11.70;99.90
22716;DHT22;11525;51.152;4.456;2023-05-20T02:50:53;11.70;99.90
22716;DHT22;11525;51.152;4.456;2023-05-20T02:53:18;11.80;99.90
22716;DHT22;11525;51.152;4.456;2023-05-20T02:55:45;11.70;99.90
22716;DHT22;11525;51.152;4.456;2023-05-20T02:58:14;11.70;99.90
22716;DHT22;11525;51.152;4.456;2023-05-20T03:00:40;11.70;99.90
22716;DHT22;11525;51.152;4.456;2023-05-20T03:03:06;11.60;99.90
22716;DHT22;11525;51.152;4.456;2023-05-20T03:05:32;11.50;99.90
22716;DHT22;11525;51.152;4.456;2023-05-20T03:08:05;11.50;99.90
22716;DHT22;11525;51.152;4.456;2023-05-20T03:10:30;11.40;99.90
22716;DHT22;11525;51.152;4.456;2023-05-20T03:12:56;11.40;99.90
22716;DHT22;11525;51.152;4.456;2023-05-20T03:15:22;11.40;99.90
22716;DHT22;11525;51.152;4.456;2023-05-20T03:17:47;11.30;99.90
22716;DHT22;11525;51.152;4.456;2023-05-20T03:20:13;11.30;99.90
22716;DHT22;11525;51.152;4.456;2023-05-20T03:22:41;11.30;99.90
22716;DHT22;11525;51.152;4.456;2023-05-20T03:25:07;11.30;99.90
22716;DHT22;11525;51.152;4.456;2023-05-20T03:27:32;11.30;99.90
22716;DHT22;11525;51.152;4.456;2023-05-20T03:29:58;11.30;99.90
22716;DHT22;11525;51.152;4.456;2023-05-20T03:32:24;11.20;99.90
22716;DHT22;11525;51.152;4.456;2023-05-20T03:34:50;11.20;99.90
22716;DHT22;11525;51.152;4.456;2023-05-20T03:37:16;11.20;99.90
22716;DHT22;11525;51.152;4.456;2023-05-20T03:39:42;11.20;99.90
22716;DHT22;11525;51.152;4.456;2023-05-20T03:42:07;11.20;99.90
22716;DHT22;11525;51.152;4.456;2023-05-20T03:44:33;11.20;99.90
22716;DHT22;11525;51.152;4.456;2023-05-20T03:46:59;11.10;99.90
22716;DHT22;11525;51.152;4.456;2023-05-20T03:49:24;11.10;99.90
22716;DHT22;11525;51.152;4.456;2023-05-20T03:51:50;11.10;99.90
22716;DHT22;11525;51.152;4.456;2023-05-20T03:54:16;11.10;99.90
22716;DHT22;11525;51.152;4.456;2023-05-20T03:56:41;11.00;99.90
22716;DHT22;11525;51.152;4.456;2023-05-20T03:59:07;11.00;99.90
22716;DHT22;11525;51.152;4.456;2023-05-20T04:01:34;11.00;99.90
22716;DHT22;11525;51.152;4.456;2023-05-20T04:03:59;11.00;99.90
22716;DHT22;11525;51.152;4.456;2023-05-20T04:06:25;10.90;99.90
22716;DHT22;11525;51.152;4.456;2023-05-20T04:08:51;10.90;99.90
22716;DHT22;11525;51.152;4.456;2023-05-20T04:11:17;10.90;99.90
22716;DHT22;11525;51.152;4.456;2023-05-20T04:13:43;10.90;99.90
22716;DHT22;11525;51.152;4.456;2023-05-20T04:16:08;11.00;99.90
22716;DHT22;11525;51.152;4.456;2023-05-20T04:18:34;11.00;99.90
22716;DHT22;11525;51.152;4.456;2023-05-20T04:21:03;11.00;99.90
22716;DHT22;11525;51.152;4.456;2023-05-20T04:23:29;11.00;99.90
22716;DHT22;11525;51.152;4.456;2023-05-20T04:25:55;11.00;99.90
22716;DHT22;11525;51.152;4.456;2023-05-20T04:28:26;11.00;99.90
22716;DHT22;11525;51.152;4.456;2023-05-20T04:31:02;11.00;99.90
22716;DHT22;11525;51.152;4.456;2023-05-20T04:33:29;11.10;99.90
22716;DHT22;11525;51.152;4.456;2023-05-20T04:35:56;11.10;99.90
22716;DHT22;11525;51.152;4.456;2023-05-20T04:38:26;11.30;99.90
22716;DHT22;11525;51.152;4.456;2023-05-20T04:40:55;11.50;99.90
22716;DHT22;11525;51.152;4.456;2023-05-20T04:43:24;11.60;99.90
22716;DHT22;11525;51.152;4.456;2023-05-20T04:45:59;11.70;99.90
22716;DHT22;11525;51.152;4.456;2023-05-20T04:48:26;12.00;99.90
22716;DHT22;11525;51.152;4.456;2023-05-20T04:50:51;12.30;99.90
22716;DHT22;11525;51.152;4.456;2023-05-20T04:53:19;12.20;99.90
22716;DHT22;11525;51.152;4.456;2023-05-20T04:55:46;12.10;99.90
22716;DHT22;11525;51.152;4.456;2023-05-20T04:58:12;11.90;99.90
22716;DHT22;11525;51.152;4.456;2023-05-20T05:00:43;11.80;99.90
22716;DHT22;11525;51.152;4.456;2023-05-20T05:03:09;11.80;99.90
22716;DHT22;11525;51.152;4.456;2023-05-20T05:05:37;12.00;99.90
22716;DHT22;11525;51.152;4.456;2023-05-20T05:08:04;12.20;99.90
22716;DHT22;11525;51.152;4.456;2023-05-20T05:10:30;12.10;99.90
22716;DHT22;11525;51.152;4.456;2023-05-20T05:12:56;12.30;99.90
22716;DHT22;11525;51.152;4.456;2023-05-20T05:15:22;12.50;99.90
22716;DHT22;11525;51.152;4.456;2023-05-20T05:17:48;12.50;99.90
22716;DHT22;11525;51.152;4.456;2023-05-20T05:20:14;12.50;99.90
22716;DHT22;11525;51.152;4.456;2023-05-20T05:22:40;12.40;99.90
22716;DHT22;11525;51.152;4.456;2023-05-20T05:25:09;12.40;99.90
22716;DHT22;11525;51.152;4.456;2023-05-20T05:27:35;12.60;99.90
22716;DHT22;11525;51.152;4.456;2023-05-20T05:30:01;12.60;99.90
22716;DHT22;11525;51.152;4.456;2023-05-20T05:32:27;12.60;99.90
22716;DHT22;11525;51.152;4.456;2023-05-20T05:34:53;12.70;99.90
22716;DHT22;11525;51.152;4.456;2023-05-20T05:37:19;12.80;99.90
22716;DHT22;11525;51.152;4.456;2023-05-20T05:39:45;12.90;99.90
22716;DHT22;11525;51.152;4.456;2023-05-20T05:42:11;12.90;99.90
22716;DHT22;11525;51.152;4.456;2023-05-20T05:44:37;12.90;99.90
22716;DHT22;11525;51.152;4.456;2023-05-20T05:47:02;13.00;99.90
22716;DHT22;11525;51.152;4.456;2023-05-20T05:49:28;13.00;99.90
22716;DHT22;11525;51.152;4.456;2023-05-20T05:51:54;13.20;99.90
22716;DHT22;11525;51.152;4.456;2023-05-20T05:54:19;13.50;99.90
22716;DHT22;11525;51.152;4.456;2023-05-20T05:56:46;13.90;99.90
22716;DHT22;11525;51.152;4.456;2023-05-20T05:59:12;14.90;99.90
22716;DHT22;11525;51.152;4.456;2023-05-20T06:01:37;15.60;99.90
22716;DHT22;11525;51.152;4.456;2023-05-20T06:04:03;16.60;99.90
22716;DHT22;11525;51.152;4.456;2023-05-20T06:06:30;17.70;99.90
22716;DHT22;11525;51.152;4.456;2023-05-20T06:08:56;18.30;99.90
22716;DHT22;11525;51.152;4.456;2023-05-20T06:11:22;19.50;99.90
22716;DHT22;11525;51.152;4.456;2023-05-20T06:13:49;20.20;99.90
22716;DHT22;11525;51.152;4.456;2023-05-20T06:16:15;21.20;99.90
22716;DHT22;11525;51.152;4.456;2023-05-20T06:18:41;22.00;99.90
22716;DHT22;11525;51.152;4.456;2023-05-20T06:21:07;22.40;97.90
22716;DHT22;11525;51.152;4.456;2023-05-20T06:23:33;22.50;97.50
22716;DHT22;11525;51.152;4.456;2023-05-20T06:25:59;22.30;97.20
22716;DHT22;11525;51.152;4.456;2023-05-20T06:28:25;22.90;95.20
22716;DHT22;11525;51.152;4.456;2023-05-20T06:30:52;23.60;93.40
22716;DHT22;11525;51.152;4.456;2023-05-20T06:33:19;24.40;91.10
22716;DHT22;11525;51.152;4.456;2023-05-20T06:35:45;23.60;90.80
22716;DHT22;11525;51.152;4.456;2023-05-20T06:38:11;23.80;91.00
22716;DHT22;11525;51.152;4.456;2023-05-20T06:40:37;25.40;87.00
22716;DHT22;11525;51.152;4.456;2023-05-20T06:43:03;25.00;85.50
22716;DHT22;11525;51.152;4.456;2023-05-20T06:45:28;25.20;84.40
22716;DHT22;11525;51.152;4.456;2023-05-20T06:47:54;24.60;83.30
22716;DHT22;11525;51.152;4.456;2023-05-20T06:50:20;24.70;83.20
22716;DHT22;11525;51.152;4.456;2023-05-20T06:52:46;24.60;82.00
22716;DHT22;11525;51.152;4.456;2023-05-20T06:55:12;25.10;82.70
22716;DHT22;11525;51.152;4.456;2023-05-20T06:57:37;25.60;78.90
22716;DHT22;11525;51.152;4.456;2023-05-20T07:00:04;25.80;79.00
22716;DHT22;11525;51.152;4.456;2023-05-20T07:02:32;25.50;77.20
22716;DHT22;11525;51.152;4.456;2023-05-20T07:04:58;24.60;79.10
22716;DHT22;11525;51.152;4.456;2023-05-20T07:07:24;24.10;81.30
22716;DHT22;11525;51.152;4.456;2023-05-20T07:09:49;25.00;79.30
22716;DHT22;11525;51.152;4.456;2023-05-20T07:12:15;26.00;76.60
22716;DHT22;11525;51.152;4.456;2023-05-20T07:14:41;26.40;73.30
22716;DHT22;11525;51.152;4.456;2023-05-20T07:17:07;26.40;74.50
22716;DHT22;11525;51.152;4.456;2023-05-20T07:19:32;26.70;70.60
22716;DHT22;11525;51.152;4.456;2023-05-20T07:21:59;26.40;72.10
22716;DHT22;11525;51.152;4.456;2023-05-20T07:24:25;26.60;71.00
22716;DHT22;11525;51.152;4.456;2023-05-20T07:26:50;27.10;69.20
22716;DHT22;11525;51.152;4.456;2023-05-20T07:29:16;27.50;68.60
22716;DHT22;11525;51.152;4.456;2023-05-20T07:31:42;28.50;64.90
22716;DHT22;11525;51.152;4.456;2023-05-20T07:34:08;28.20;65.20
22716;DHT22;11525;51.152;4.456;2023-05-20T07:36:33;27.70;63.10
22716;DHT22;11525;51.152;4.456;2023-05-20T07:38:59;27.20;64.50
22716;DHT22;11525;51.152;4.456;2023-05-20T07:41:25;26.60;65.20
22716;DHT22;11525;51.152;4.456;2023-05-20T07:43:51;26.70;66.40
22716;DHT22;11525;51.152;4.456;2023-05-20T07:46:17;27.20;63.60
22716;DHT22;11525;51.152;4.456;2023-05-20T07:48:43;28.80;62.60
22716;DHT22;11525;51.152;4.456;2023-05-20T07:51:10;29.20;58.50
22716;DHT22;11525;51.152;4.456;2023-05-20T07:53:36;26.90;62.40
22716;DHT22;11525;51.152;4.456;2023-05-20T07:56:02;27.10;62.90
22716;DHT22;11525;51.152;4.456;2023-05-20T07:58:27;27.00;62.50
22716;DHT22;11525;51.152;4.456;2023-05-20T08:00:53;25.80;64.50
22716;DHT22;11525;51.152;4.456;2023-05-20T08:03:19;26.10;65.50
22716;DHT22;11525;51.152;4.456;2023-05-20T08:05:46;26.60;62.40
22716;DHT22;11525;51.152;4.456;2023-05-20T08:08:12;26.20;62.60
22716;DHT22;11525;51.152;4.456;2023-05-20T08:10:38;25.90;64.40
22716;DHT22;11525;51.152;4.456;2023-05-20T08:13:03;25.00;65.30
22716;DHT22;11525;51.152;4.456;2023-05-20T08:15:29;24.60;65.80
22716;DHT22;11525;51.152;4.456;2023-05-20T08:17:55;24.60;67.30
22716;DHT22;11525;51.152;4.456;2023-05-20T08:20:21;25.30;65.40
22716;DHT22;11525;51.152;4.456;2023-05-20T08:22:46;24.70;66.60
22716;DHT22;11525;51.152;4.456;2023-05-20T08:25:12;24.60;67.00
22716;DHT22;11525;51.152;4.456;2023-05-20T08:27:39;24.50;67.40
22716;DHT22;11525;51.152;4.456;2023-05-20T08:30:06;24.80;66.10
22716;DHT22;11525;51.152;4.456;2023-05-20T08:32:34;24.30;66.30
22716;DHT22;11525;51.152;4.456;2023-05-20T08:35:01;23.60;67.70
22716;DHT22;11525;51.152;4.456;2023-05-20T08:37:28;24.50;67.70
22716;DHT22;11525;51.152;4.456;2023-05-20T08:39:54;25.20;63.20
22716;DHT22;11525;51.152;4.456;2023-05-20T08:42:23;25.20;62.30
22716;DHT22;11525;51.152;4.456;2023-05-20T08:44:51;25.40;62.60
22716;DHT22;11525;51.152;4.456;2023-05-20T08:47:21;26.00;61.70
22716;DHT22;11525;51.152;4.456;2023-05-20T08:49:47;25.80;63.00
22716;DHT22;11525;51.152;4.456;2023-05-20T08:52:16;25.80;60.70
22716;DHT22;11525;51.152;4.456;2023-05-20T08:54:47;25.60;60.80
22716;DHT22;11525;51.152;4.456;2023-05-20T08:57:14;25.70;61.00
22716;DHT22;11525;51.152;4.456;2023-05-20T08:59:44;26.80;59.70
22716;DHT22;11525;51.152;4.456;2023-05-20T09:02:11;26.70;58.80
22716;DHT22;11525;51.152;4.456;2023-05-20T09:04:37;27.60;58.00
22716;DHT22;11525;51.152;4.456;2023-05-20T09:07:03;26.70;57.00
22716;DHT22;11525;51.152;4.456;2023-05-20T09:09:31;26.20;57.60
22716;DHT22;11525;51.152;4.456;2023-05-20T09:11:58;25.30;59.80
22716;DHT22;11525;51.152;4.456;2023-05-20T09:14:24;24.80;61.10
22716;DHT22;11525;51.152;4.456;2023-05-20T09:16:51;25.20;60.70
22716;DHT22;11525;51.152;4.456;2023-05-20T09:19:20;25.00;60.40
22716;DHT22;11525;51.152;4.456;2023-05-20T09:21:46;25.00;60.10
22716;DHT22;11525;51.152;4.456;2023-05-20T09:24:12;25.60;59.00
22716;DHT22;11525;51.152;4.456;2023-05-20T09:26:37;26.00;58.90
22716;DHT22;11525;51.152;4.456;2023-05-20T09:29:03;26.30;58.20
22716;DHT22;11525;51.152;4.456;2023-05-20T09:31:33;25.90;58.50
22716;DHT22;11525;51.152;4.456;2023-05-20T09:34:02;25.40;59.80
22716;DHT22;11525;51.152;4.456;2023-05-20T09:36:28;25.00;59.80
22716;DHT22;11525;51.152;4.456;2023-05-20T09:39:00;24.90;61.10
22716;DHT22;11525;51.152;4.456;2023-05-20T09:41:33;25.40;59.70
22716;DHT22;11525;51.152;4.456;2023-05-20T09:44:01;26.00;58.70
22716;DHT22;11525;51.152;4.456;2023-05-20T09:46:28;26.40;57.80
22716;DHT22;11525;51.152;4.456;2023-05-20T09:48:55;26.40;57.70
22716;DHT22;11525;51.152;4.456;2023-05-20T09:51:22;26.20;57.50
22716;DHT22;11525;51.152;4.456;2023-05-20T09:53:50;25.40;59.20
22716;DHT22;11525;51.152;4.456;2023-05-20T09:56:17;26.00;58.90
22716;DHT22;11525;51.152;4.456;2023-05-20T09:58:45;25.40;58.60
22716;DHT22;11525;51.152;4.456;2023-05-20T10:01:11;25.50;58.70
22716;DHT22;11525;51.152;4.456;2023-05-20T10:03:37;26.60;57.80
22716;DHT22;11525;51.152;4.456;2023-05-20T10:06:32;26.50;57.50
22716;DHT22;11525;51.152;4.456;2023-05-20T10:12:26;25.40;57.70
22716;DHT22;11525;51.152;4.456;2023-05-20T10:15:12;25.10;59.50
22716;DHT22;11525;51.152;4.456;2023-05-20T10:20:11;25.50;59.40
22716;DHT22;11525;51.152;4.456;2023-05-20T10:22:38;25.80;59.00
22716;DHT22;11525;51.152;4.456;2023-05-20T10:25:06;25.80;57.80
22716;DHT22;11525;51.152;4.456;2023-05-20T10:27:43;25.30;59.00
22716;DHT22;11525;51.152;4.456;2023-05-20T10:30:17;25.60;60.50
22716;DHT22;11525;51.152;4.456;2023-05-20T10:32:54;26.30;57.50
22716;DHT22;11525;51.152;4.456;2023-05-20T10:35:25;25.70;57.80
22716;DHT22;11525;51.152;4.456;2023-05-20T10:37:52;25.30;58.30
22716;DHT22;11525;51.152;4.456;2023-05-20T10:40:20;24.70;59.80
22716;DHT22;11525;51.152;4.456;2023-05-20T10:42:46;25.50;58.60
22716;DHT22;11525;51.152;4.456;2023-05-20T10:45:33;25.60;58.50
22716;DHT22;11525;51.152;4.456;2023-05-20T10:48:01;26.40;57.70
22716;DHT22;11525;51.152;4.456;2023-05-20T10:50:35;25.90;56.60
22716;DHT22;11525;51.152;4.456;2023-05-20T10:53:06;26.30;57.50
22716;DHT22;11525;51.152;4.456;2023-05-20T10:55:39;25.10;58.80
22716;DHT22;11525;51.152;4.456;2023-05-20T10:58:05;24.70;60.20
22716;DHT22;11525;51.152;4.456;2023-05-20T11:00:35;24.00;62.60
22716;DHT22;11525;51.152;4.456;2023-05-20T11:03:03;22.80;65.50
22716;DHT22;11525;51.152;4.456;2023-05-20T11:05:29;22.30;68.40
22716;DHT22;11525;51.152;4.456;2023-05-20T11:08:08;22.20;68.80
22716;DHT22;11525;51.152;4.456;2023-05-20T11:10:35;22.00;69.50
22716;DHT22;11525;51.152;4.456;2023-05-20T11:13:02;21.80;70.50
22716;DHT22;11525;51.152;4.456;2023-05-20T11:15:29;21.70;70.70
22716;DHT22;11525;51.152;4.456;2023-05-20T11:17:56;22.00;72.30
22716;DHT22;11525;51.152;4.456;2023-05-20T11:20:23;22.00;70.50
22716;DHT22;11525;51.152;4.456;2023-05-20T11:22:50;22.00;71.80
22716;DHT22;11525;51.152;4.456;2023-05-20T11:25:17;21.90;71.20
22716;DHT22;11525;51.152;4.456;2023-05-20T11:27:43;21.80;72.70
22716;DHT22;11525;51.152;4.456;2023-05-20T11:30:13;21.80;73.40
22716;DHT22;11525;51.152;4.456;2023-05-20T11:35:27;21.60;74.20
22716;DHT22;11525;51.152;4.456;2023-05-20T11:38:02;21.40;74.40
22716;DHT22;11525;51.152;4.456;2023-05-20T11:40:29;21.60;74.90
22716;DHT22;11525;51.152;4.456;2023-05-20T11:42:56;21.80;74.60
22716;DHT22;11525;51.152;4.456;2023-05-20T11:45:23;21.80;73.50
22716;DHT22;11525;51.152;4.456;2023-05-20T11:48:02;21.60;74.50
22716;DHT22;11525;51.152;4.456;2023-05-20T11:50:32;21.40;73.60
22716;DHT22;11525;51.152;4.456;2023-05-20T11:52:59;21.60;74.90
22716;DHT22;11525;51.152;4.456;2023-05-20T11:55:25;21.40;75.10
22716;DHT22;11525;51.152;4.456;2023-05-20T11:57:51;21.20;75.70
22716;DHT22;11525;51.152;4.456;2023-05-20T12:00:17;21.20;77.00
22716;DHT22;11525;51.152;4.456;2023-05-20T12:02:43;21.30;77.50
22716;DHT22;11525;51.152;4.456;2023-05-20T12:05:09;21.50;77.50
22716;DHT22;11525;51.152;4.456;2023-05-20T12:07:35;21.40;77.00
22716;DHT22;11525;51.152;4.456;2023-05-20T12:10:05;21.40;77.10
22716;DHT22;11525;51.152;4.456;2023-05-20T12:12:31;21.50;76.80
22716;DHT22;11525;51.152;4.456;2023-05-20T12:14:56;21.60;76.00
22716;DHT22;11525;51.152;4.456;2023-05-20T12:17:22;21.70;77.50
22716;DHT22;11525;51.152;4.456;2023-05-20T12:19:48;21.80;76.60
22716;DHT22;11525;51.152;4.456;2023-05-20T12:22:13;21.70;76.20
22716;DHT22;11525;51.152;4.456;2023-05-20T12:24:39;21.40;78.00
22716;DHT22;11525;51.152;4.456;2023-05-20T12:27:05;21.40;78.30
22716;DHT22;11525;51.152;4.456;2023-05-20T12:29:32;21.50;78.20
22716;DHT22;11525;51.152;4.456;2023-05-20T12:31:58;21.50;78.20
22716;DHT22;11525;51.152;4.456;2023-05-20T12:34:24;21.70;78.20
22716;DHT22;11525;51.152;4.456;2023-05-20T12:36:50;21.60;78.90
22716;DHT22;11525;51.152;4.456;2023-05-20T12:39:16;21.60;79.30
22716;DHT22;11525;51.152;4.456;2023-05-20T12:41:43;21.50;78.80
22716;DHT22;11525;51.152;4.456;2023-05-20T12:44:09;21.50;79.80
22716;DHT22;11525;51.152;4.456;2023-05-20T12:46:36;21.60;80.10
22716;DHT22;11525;51.152;4.456;2023-05-20T12:49:02;21.40;80.00
22716;DHT22;11525;51.152;4.456;2023-05-20T12:51:28;21.50;80.00
22716;DHT22;11525;51.152;4.456;2023-05-20T12:53:54;21.80;80.80
22716;DHT22;11525;51.152;4.456;2023-05-20T12:56:19;21.90;78.90
22716;DHT22;11525;51.152;4.456;2023-05-20T12:58:45;21.90;79.10
22716;DHT22;11525;51.152;4.456;2023-05-20T13:01:11;21.80;78.40
22716;DHT22;11525;51.152;4.456;2023-05-20T13:03:37;21.90;77.90
22716;DHT22;11525;51.152;4.456;2023-05-20T13:06:03;21.80;77.80
22716;DHT22;11525;51.152;4.456;2023-05-20T13:08:29;21.70;79.60
22716;DHT22;11525;51.152;4.456;2023-05-20T13:10:54;21.70;79.80
22716;DHT22;11525;51.152;4.456;2023-05-20T13:13:20;21.90;77.80
22716;DHT22;11525;51.152;4.456;2023-05-20T13:15:49;22.10;77.80
22716;DHT22;11525;51.152;4.456;2023-05-20T13:18:15;22.10;79.20
22716;DHT22;11525;51.152;4.456;2023-05-20T13:20:42;22.00;78.00
22716;DHT22;11525;51.152;4.456;2023-05-20T13:23:08;21.90;78.60
22716;DHT22;11525;51.152;4.456;2023-05-20T13:25:34;22.10;78.20
22716;DHT22;11525;51.152;4.456;2023-05-20T13:28:01;22.10;77.20
22716;DHT22;11525;51.152;4.456;2023-05-20T13:30:27;21.80;78.60
22716;DHT22;11525;51.152;4.456;2023-05-20T13:32:53;21.90;79.20
22716;DHT22;11525;51.152;4.456;2023-05-20T13:35:19;21.70;80.00
22716;DHT22;11525;51.152;4.456;2023-05-20T13:37:45;21.70;79.30
22716;DHT22;11525;51.152;4.456;2023-05-20T13:40:11;21.70;80.80
22716;DHT22;11525;51.152;4.456;2023-05-20T13:42:37;21.50;80.30
22716;DHT22;11525;51.152;4.456;2023-05-20T13:45:03;21.50;81.00
22716;DHT22;11525;51.152;4.456;2023-05-20T13:47:29;21.50;79.80
22716;DHT22;11525;51.152;4.456;2023-05-20T13:49:55;21.40;80.70
22716;DHT22;11525;51.152;4.456;2023-05-20T13:52:21;21.50;81.20
22716;DHT22;11525;51.152;4.456;2023-05-20T13:54:46;21.70;81.30
22716;DHT22;11525;51.152;4.456;2023-05-20T13:57:13;22.00;80.10
22716;DHT22;11525;51.152;4.456;2023-05-20T13:59:39;22.30;80.70
22716;DHT22;11525;51.152;4.456;2023-05-20T14:02:06;22.40;77.60
22716;DHT22;11525;51.152;4.456;2023-05-20T14:04:32;22.00;78.70
22716;DHT22;11525;51.152;4.456;2023-05-20T14:07:06;21.90;79.40
22716;DHT22;11525;51.152;4.456;2023-05-20T14:09:32;21.50;79.70
22716;DHT22;11525;51.152;4.456;2023-05-20T14:11:58;21.60;79.10
22716;DHT22;11525;51.152;4.456;2023-05-20T14:14:24;21.70;79.70
22716;DHT22;11525;51.152;4.456;2023-05-20T14:16:49;22.10;79.60
22716;DHT22;11525;51.152;4.456;2023-05-20T14:19:15;22.10;80.20
22716;DHT22;11525;51.152;4.456;2023-05-20T14:21:41;22.20;79.20
22716;DHT22;11525;51.152;4.456;2023-05-20T14:24:06;22.40;78.90
22716;DHT22;11525;51.152;4.456;2023-05-20T14:26:33;22.20;79.00
22716;DHT22;11525;51.152;4.456;2023-05-20T14:28:59;22.30;80.80
22716;DHT22;11525;51.152;4.456;2023-05-20T14:31:26;22.40;78.90
22716;DHT22;11525;51.152;4.456;2023-05-20T14:33:51;22.30;78.30
22716;DHT22;11525;51.152;4.456;2023-05-20T14:36:17;22.20;78.20
22716;DHT22;11525;51.152;4.456;2023-05-20T14:38:43;22.20;79.10
22716;DHT22;11525;51.152;4.456;2023-05-20T14:41:08;22.30;79.40
22716;DHT22;11525;51.152;4.456;2023-05-20T14:43:34;22.20;79.20
22716;DHT22;11525;51.152;4.456;2023-05-20T14:46:02;22.50;80.10
22716;DHT22;11525;51.152;4.456;2023-05-20T14:48:28;22.40;77.90
22716;DHT22;11525;51.152;4.456;2023-05-20T14:50:53;22.30;79.10
22716;DHT22;11525;51.152;4.456;2023-05-20T14:53:19;22.10;80.00
22716;DHT22;11525;51.152;4.456;2023-05-20T14:55:45;22.20;79.20
22716;DHT22;11525;51.152;4.456;2023-05-20T14:58:11;22.20;79.50
22716;DHT22;11525;51.152;4.456;2023-05-20T15:00:38;22.00;80.40
22716;DHT22;11525;51.152;4.456;2023-05-20T15:03:04;22.10;81.40
22716;DHT22;11525;51.152;4.456;2023-05-20T15:05:29;22.10;79.90
22716;DHT22;11525;51.152;4.456;2023-05-20T15:07:55;22.00;80.10
22716;DHT22;11525;51.152;4.456;2023-05-20T15:10:22;21.70;81.40
22716;DHT22;11525;51.152;4.456;2023-05-20T15:12:47;21.80;80.80
22716;DHT22;11525;51.152;4.456;2023-05-20T15:15:13;21.80;81.60
22716;DHT22;11525;51.152;4.456;2023-05-20T15:17:39;21.80;82.20
22716;DHT22;11525;51.152;4.456;2023-05-20T15:20:05;21.80;82.50
22716;DHT22;11525;51.152;4.456;2023-05-20T15:22:31;21.50;82.30
22716;DHT22;11525;51.152;4.456;2023-05-20T15:24:57;21.50;83.60
22716;DHT22;11525;51.152;4.456;2023-05-20T15:27:22;21.30;84.10
22716;DHT22;11525;51.152;4.456;2023-05-20T15:29:48;21.40;84.30
22716;DHT22;11525;51.152;4.456;2023-05-20T15:32:14;21.40;83.40
22716;DHT22;11525;51.152;4.456;2023-05-20T15:34:40;21.40;84.50
22716;DHT22;11525;51.152;4.456;2023-05-20T15:37:05;21.40;84.80